Terminal Aerodrome Forecast
Issued by NWS Sioux Falls, SD

Home | Current Version | Previous Version | Text Only | Print | Product List | Glossary Off
Versions: 1 2 3 4 5 6 7 8 9 10 11 12 13

000
FTUS43 KFSD 220500
TAFFSD
TAF
KFSD 220520Z 2206/2306 VRB04KT P6SM SKC
     FM221700 15011KT P6SM SCT200
     FM222300 14014G21KT P6SM BKN120=

USA.gov is the U.S. government's official web portal to all federal, state and local government web resources and services.